sensor_id;sensor_type;location;lat;lon;timestamp;pressure;altitude;pressure_sealevel;temperature;humidity
63339;BME280;70568;51.378;-1.342;2023-06-24T00:01:38;101047.95;;;19.55;26.51
63339;BME280;70568;51.378;-1.342;2023-06-24T00:04:05;101045.33;;;19.92;26.60
63339;BME280;70568;51.378;-1.342;2023-06-24T00:06:32;101045.81;;;19.30;26.99
63339;BME280;70568;51.378;-1.342;2023-06-24T00:08:59;101042.94;;;17.19;28.27
63339;BME280;70568;51.378;-1.342;2023-06-24T00:11:28;101034.55;;;17.87;28.56
63339;BME280;70568;51.378;-1.342;2023-06-24T00:13:55;101033.88;;;17.21;29.05
63339;BME280;70568;51.378;-1.342;2023-06-24T00:16:22;101028.70;;;16.55;28.83
63339;BME280;70568;51.378;-1.342;2023-06-24T00:18:49;101026.34;;;17.05;28.40
63339;BME280;70568;51.378;-1.342;2023-06-24T00:21:15;101020.47;;;17.82;28.12
63339;BME280;70568;51.378;-1.342;2023-06-24T00:23:41;101020.54;;;16.61;29.20
63339;BME280;70568;51.378;-1.342;2023-06-24T00:26:08;101020.78;;;16.30;29.50
63339;BME280;70568;51.378;-1.342;2023-06-24T00:28:34;101018.25;;;16.02;30.07
63339;BME280;70568;51.378;-1.342;2023-06-24T00:31:01;101019.86;;;18.46;28.12
63339;BME280;70568;51.378;-1.342;2023-06-24T00:33:28;101023.43;;;18.43;29.30
63339;BME280;70568;51.378;-1.342;2023-06-24T00:35:55;101022.46;;;17.35;29.45
63339;BME280;70568;51.378;-1.342;2023-06-24T00:38:22;101026.95;;;18.37;29.37
63339;BME280;70568;51.378;-1.342;2023-06-24T00:40:48;101028.65;;;18.91;30.70
63339;BME280;70568;51.378;-1.342;2023-06-24T00:43:15;101022.74;;;18.67;30.07
63339;BME280;70568;51.378;-1.342;2023-06-24T00:45:43;101026.70;;;16.39;31.48
63339;BME280;70568;51.378;-1.342;2023-06-24T00:48:10;101024.51;;;14.03;33.12
63339;BME280;70568;51.378;-1.342;2023-06-24T00:50:36;101023.50;;;16.15;30.99
63339;BME280;70568;51.378;-1.342;2023-06-24T00:53:03;101027.48;;;14.88;32.80
63339;BME280;70568;51.378;-1.342;2023-06-24T00:55:29;101029.98;;;15.44;32.53
63339;BME280;70568;51.378;-1.342;2023-06-24T00:57:56;101026.96;;;14.36;32.19
63339;BME280;70568;51.378;-1.342;2023-06-24T01:00:23;101023.89;;;16.65;31.04
63339;BME280;70568;51.378;-1.342;2023-06-24T01:02:51;101024.01;;;14.39;33.36
63339;BME280;70568;51.378;-1.342;2023-06-24T01:05:18;101023.50;;;13.28;31.90
63339;BME280;70568;51.378;-1.342;2023-06-24T01:07:46;101024.14;;;14.26;31.94
63339;BME280;70568;51.378;-1.342;2023-06-24T01:10:13;101016.54;;;16.46;30.62
63339;BME280;70568;51.378;-1.342;2023-06-24T01:12:40;101019.06;;;16.14;30.53
63339;BME280;70568;51.378;-1.342;2023-06-24T01:15:08;101022.38;;;16.90;29.38
63339;BME280;70568;51.378;-1.342;2023-06-24T01:17:38;101019.93;;;16.93;29.76
63339;BME280;70568;51.378;-1.342;2023-06-24T01:20:10;101020.73;;;15.46;31.47
63339;BME280;70568;51.378;-1.342;2023-06-24T01:23:06;101015.54;;;15.18;30.93
63339;BME280;70568;51.378;-1.342;2023-06-24T01:25:59;101012.56;;;16.57;30.20
63339;BME280;70568;51.378;-1.342;2023-06-24T01:28:40;101011.36;;;14.78;29.92
63339;BME280;70568;51.378;-1.342;2023-06-24T01:31:44;101009.39;;;14.88;30.07
63339;BME280;70568;51.378;-1.342;2023-06-24T01:34:23;101007.06;;;16.04;29.52
63339;BME280;70568;51.378;-1.342;2023-06-24T01:36:58;101000.31;;;14.88;29.65
63339;BME280;70568;51.378;-1.342;2023-06-24T01:39:28;100995.44;;;15.63;29.44
63339;BME280;70568;51.378;-1.342;2023-06-24T01:42:00;100995.95;;;16.51;28.44
63339;BME280;70568;51.378;-1.342;2023-06-24T01:44:29;100999.28;;;17.22;27.71
63339;BME280;70568;51.378;-1.342;2023-06-24T01:46:58;101003.01;;;17.78;27.97
63339;BME280;70568;51.378;-1.342;2023-06-24T01:49:28;101005.57;;;19.56;27.27
63339;BME280;70568;51.378;-1.342;2023-06-24T01:51:58;101006.16;;;19.40;27.87
63339;BME280;70568;51.378;-1.342;2023-06-24T01:54:28;101005.66;;;19.22;28.45
63339;BME280;70568;51.378;-1.342;2023-06-24T01:56:57;101009.20;;;18.04;28.55
63339;BME280;70568;51.378;-1.342;2023-06-24T01:59:28;101011.21;;;17.81;28.72
63339;BME280;70568;51.378;-1.342;2023-06-24T02:01:56;101010.67;;;17.98;29.90
63339;BME280;70568;51.378;-1.342;2023-06-24T02:04:24;101007.42;;;17.61;30.22
63339;BME280;70568;51.378;-1.342;2023-06-24T02:06:53;101013.22;;;14.25;31.70
63339;BME280;70568;51.378;-1.342;2023-06-24T02:09:21;101008.48;;;14.96;30.69
63339;BME280;70568;51.378;-1.342;2023-06-24T02:11:49;101004.90;;;14.51;30.98
63339;BME280;70568;51.378;-1.342;2023-06-24T02:14:17;101000.25;;;15.24;30.25
63339;BME280;70568;51.378;-1.342;2023-06-24T02:16:46;101002.22;;;15.42;30.09
63339;BME280;70568;51.378;-1.342;2023-06-24T02:19:14;101001.64;;;16.06;29.63
63339;BME280;70568;51.378;-1.342;2023-06-24T02:21:42;101004.17;;;14.36;29.71
63339;BME280;70568;51.378;-1.342;2023-06-24T02:24:11;101003.92;;;16.40;28.95
63339;BME280;70568;51.378;-1.342;2023-06-24T02:26:38;101001.44;;;15.80;29.72
63339;BME280;70568;51.378;-1.342;2023-06-24T02:29:06;100999.80;;;13.66;29.72
63339;BME280;70568;51.378;-1.342;2023-06-24T02:31:35;101002.25;;;15.29;29.59
63339;BME280;70568;51.378;-1.342;2023-06-24T02:34:02;101003.35;;;17.28;29.34
63339;BME280;70568;51.378;-1.342;2023-06-24T02:36:28;101001.50;;;16.25;29.19
63339;BME280;70568;51.378;-1.342;2023-06-24T02:38:55;101008.03;;;14.74;30.70
63339;BME280;70568;51.378;-1.342;2023-06-24T02:41:21;101010.68;;;13.93;32.79
63339;BME280;70568;51.378;-1.342;2023-06-24T02:43:48;101014.72;;;13.15;33.53
63339;BME280;70568;51.378;-1.342;2023-06-24T02:46:15;101003.92;;;15.97;30.61
63339;BME280;70568;51.378;-1.342;2023-06-24T02:48:45;101004.30;;;13.84;32.03
63339;BME280;70568;51.378;-1.342;2023-06-24T02:51:12;101000.44;;;15.46;31.11
63339;BME280;70568;51.378;-1.342;2023-06-24T02:53:40;101000.37;;;16.58;31.18
63339;BME280;70568;51.378;-1.342;2023-06-24T02:56:08;100999.87;;;15.98;33.34
63339;BME280;70568;51.378;-1.342;2023-06-24T02:58:36;100998.95;;;13.96;33.14
63339;BME280;70568;51.378;-1.342;2023-06-24T03:01:03;101000.44;;;14.56;33.91
63339;BME280;70568;51.378;-1.342;2023-06-24T03:03:31;100997.06;;;13.01;35.14
63339;BME280;70568;51.378;-1.342;2023-06-24T03:05:59;100998.71;;;13.09;35.06
63339;BME280;70568;51.378;-1.342;2023-06-24T03:08:27;101001.40;;;14.81;34.79
63339;BME280;70568;51.378;-1.342;2023-06-24T03:10:54;101000.54;;;14.04;35.27
63339;BME280;70568;51.378;-1.342;2023-06-24T03:13:22;100998.22;;;13.47;35.01
63339;BME280;70568;51.378;-1.342;2023-06-24T03:15:49;101000.90;;;15.50;33.45
63339;BME280;70568;51.378;-1.342;2023-06-24T03:18:16;100993.31;;;14.58;34.83
63339;BME280;70568;51.378;-1.342;2023-06-24T03:20:43;100997.39;;;12.62;36.72
63339;BME280;70568;51.378;-1.342;2023-06-24T03:23:10;100995.01;;;13.48;35.07
63339;BME280;70568;51.378;-1.342;2023-06-24T03:25:37;100995.26;;;14.85;34.64
63339;BME280;70568;51.378;-1.342;2023-06-24T03:28:04;100999.55;;;14.26;34.89
63339;BME280;70568;51.378;-1.342;2023-06-24T03:30:32;101000.52;;;14.52;34.65
63339;BME280;70568;51.378;-1.342;2023-06-24T03:32:59;101002.48;;;15.40;34.20
63339;BME280;70568;51.378;-1.342;2023-06-24T03:35:27;101000.76;;;16.13;34.09
63339;BME280;70568;51.378;-1.342;2023-06-24T03:37:54;101001.82;;;14.95;34.92
63339;BME280;70568;51.378;-1.342;2023-06-24T03:40:21;100997.61;;;16.04;33.29
63339;BME280;70568;51.378;-1.342;2023-06-24T03:42:47;100995.31;;;17.75;33.23
63339;BME280;70568;51.378;-1.342;2023-06-24T03:45:14;100994.47;;;16.14;34.03
63339;BME280;70568;51.378;-1.342;2023-06-24T03:47:41;100994.56;;;15.66;35.13
63339;BME280;70568;51.378;-1.342;2023-06-24T03:50:08;100996.08;;;16.72;34.25
63339;BME280;70568;51.378;-1.342;2023-06-24T03:52:35;100999.43;;;13.24;36.58
63339;BME280;70568;51.378;-1.342;2023-06-24T03:55:03;101000.79;;;15.49;34.38
63339;BME280;70568;51.378;-1.342;2023-06-24T03:57:30;101002.80;;;13.82;35.40
63339;BME280;70568;51.378;-1.342;2023-06-24T03:59:57;101005.42;;;14.48;33.73
63339;BME280;70568;51.378;-1.342;2023-06-24T04:02:23;101007.61;;;15.32;33.83
63339;BME280;70568;51.378;-1.342;2023-06-24T04:04:51;101007.74;;;14.85;33.73
63339;BME280;70568;51.378;-1.342;2023-06-24T04:07:17;101007.24;;;16.81;32.49
63339;BME280;70568;51.378;-1.342;2023-06-24T04:09:44;101009.48;;;15.94;32.50
63339;BME280;70568;51.378;-1.342;2023-06-24T04:12:11;101007.06;;;15.20;33.91
63339;BME280;70568;51.378;-1.342;2023-06-24T04:14:38;101007.83;;;15.73;33.69
63339;BME280;70568;51.378;-1.342;2023-06-24T04:17:04;101007.14;;;14.52;33.77
63339;BME280;70568;51.378;-1.342;2023-06-24T04:19:31;101005.15;;;15.18;33.12
63339;BME280;70568;51.378;-1.342;2023-06-24T04:21:59;101005.98;;;15.53;33.43
63339;BME280;70568;51.378;-1.342;2023-06-24T04:24:27;101006.89;;;15.28;33.66
63339;BME280;70568;51.378;-1.342;2023-06-24T04:26:53;101006.88;;;13.52;35.71
63339;BME280;70568;51.378;-1.342;2023-06-24T04:29:20;101011.72;;;16.75;32.78
63339;BME280;70568;51.378;-1.342;2023-06-24T04:31:47;101015.23;;;15.33;33.62
63339;BME280;70568;51.378;-1.342;2023-06-24T04:34:14;101018.03;;;15.32;34.46
63339;BME280;70568;51.378;-1.342;2023-06-24T04:36:41;101017.55;;;14.28;35.07
63339;BME280;70568;51.378;-1.342;2023-06-24T04:39:08;101019.75;;;16.88;33.67
63339;BME280;70568;51.378;-1.342;2023-06-24T04:41:34;101017.21;;;16.32;34.12
63339;BME280;70568;51.378;-1.342;2023-06-24T04:44:02;101017.67;;;14.51;35.88
63339;BME280;70568;51.378;-1.342;2023-06-24T04:46:29;101022.06;;;15.08;34.67
63339;BME280;70568;51.378;-1.342;2023-06-24T04:48:56;101022.68;;;14.50;35.88
63339;BME280;70568;51.378;-1.342;2023-06-24T04:51:23;101021.25;;;13.35;35.53
63339;BME280;70568;51.378;-1.342;2023-06-24T04:53:49;101019.06;;;15.33;34.59
63339;BME280;70568;51.378;-1.342;2023-06-24T04:56:16;101020.52;;;14.20;36.69
63339;BME280;70568;51.378;-1.342;2023-06-24T04:58:43;101017.72;;;13.25;37.34
63339;BME280;70568;51.378;-1.342;2023-06-24T05:01:10;101017.42;;;17.76;35.44
63339;BME280;70568;51.378;-1.342;2023-06-24T05:03:36;101021.10;;;15.70;35.98
63339;BME280;70568;51.378;-1.342;2023-06-24T05:06:03;101023.47;;;15.09;37.72
63339;BME280;70568;51.378;-1.342;2023-06-24T05:08:30;101019.63;;;12.75;38.69
63339;BME280;70568;51.378;-1.342;2023-06-24T05:10:57;101016.24;;;15.28;36.04
63339;BME280;70568;51.378;-1.342;2023-06-24T05:13:23;101014.48;;;15.35;36.00
63339;BME280;70568;51.378;-1.342;2023-06-24T05:15:50;101011.02;;;15.37;36.49
63339;BME280;70568;51.378;-1.342;2023-06-24T05:18:17;101018.09;;;16.00;35.42
63339;BME280;70568;51.378;-1.342;2023-06-24T05:20:44;101018.07;;;15.45;36.56
63339;BME280;70568;51.378;-1.342;2023-06-24T05:23:10;101022.40;;;12.83;38.73
63339;BME280;70568;51.378;-1.342;2023-06-24T05:25:38;101022.96;;;13.92;37.58
63339;BME280;70568;51.378;-1.342;2023-06-24T05:28:05;101017.63;;;14.91;36.90
63339;BME280;70568;51.378;-1.342;2023-06-24T05:30:32;101016.85;;;14.61;36.78
63339;BME280;70568;51.378;-1.342;2023-06-24T05:32:58;101017.02;;;14.25;36.49
63339;BME280;70568;51.378;-1.342;2023-06-24T05:35:25;101020.89;;;13.19;37.28
63339;BME280;70568;51.378;-1.342;2023-06-24T05:37:52;101018.65;;;15.96;35.67
63339;BME280;70568;51.378;-1.342;2023-06-24T05:40:19;101023.92;;;15.74;36.47
63339;BME280;70568;51.378;-1.342;2023-06-24T05:42:46;101025.40;;;14.43;36.67
63339;BME280;70568;51.378;-1.342;2023-06-24T05:45:13;101027.70;;;16.72;34.37
63339;BME280;70568;51.378;-1.342;2023-06-24T05:47:40;101031.26;;;16.20;36.02
63339;BME280;70568;51.378;-1.342;2023-06-24T05:50:07;101030.98;;;14.73;36.33
63339;BME280;70568;51.378;-1.342;2023-06-24T05:52:33;101035.79;;;13.93;36.33
63339;BME280;70568;51.378;-1.342;2023-06-24T05:55:00;101037.15;;;16.40;33.72
63339;BME280;70568;51.378;-1.342;2023-06-24T05:57:28;101037.56;;;16.08;34.33
63339;BME280;70568;51.378;-1.342;2023-06-24T05:59:55;101040.39;;;16.54;33.94
63339;BME280;70568;51.378;-1.342;2023-06-24T06:02:22;101037.73;;;17.92;33.25
63339;BME280;70568;51.378;-1.342;2023-06-24T06:04:50;101039.71;;;16.92;33.99
63339;BME280;70568;51.378;-1.342;2023-06-24T06:07:17;101034.85;;;14.39;35.93
63339;BME280;70568;51.378;-1.342;2023-06-24T06:09:43;101024.80;;;17.05;33.09
63339;BME280;70568;51.378;-1.342;2023-06-24T06:12:10;101029.99;;;15.79;35.98
63339;BME280;70568;51.378;-1.342;2023-06-24T06:14:37;101027.18;;;15.54;35.97
63339;BME280;70568;51.378;-1.342;2023-06-24T06:17:05;101025.90;;;14.48;36.35
63339;BME280;70568;51.378;-1.342;2023-06-24T06:19:32;101027.45;;;13.68;37.59
63339;BME280;70568;51.378;-1.342;2023-06-24T06:21:59;101031.07;;;16.25;35.29
63339;BME280;70568;51.378;-1.342;2023-06-24T06:24:27;101033.40;;;15.85;35.64
63339;BME280;70568;51.378;-1.342;2023-06-24T06:26:53;101031.94;;;14.38;36.91
63339;BME280;70568;51.378;-1.342;2023-06-24T06:29:20;101032.18;;;18.62;33.88
63339;BME280;70568;51.378;-1.342;2023-06-24T06:31:47;101032.64;;;15.90;36.52
63339;BME280;70568;51.378;-1.342;2023-06-24T06:34:15;101033.10;;;16.50;36.32
63339;BME280;70568;51.378;-1.342;2023-06-24T06:36:43;101033.95;;;14.19;39.34
63339;BME280;70568;51.378;-1.342;2023-06-24T06:39:10;101030.74;;;16.30;36.27
63339;BME280;70568;51.378;-1.342;2023-06-24T06:41:37;101030.61;;;17.76;35.40
63339;BME280;70568;51.378;-1.342;2023-06-24T06:44:04;101028.56;;;17.24;35.92
63339;BME280;70568;51.378;-1.342;2023-06-24T06:46:30;101028.67;;;16.01;35.67
63339;BME280;70568;51.378;-1.342;2023-06-24T06:48:57;101029.97;;;15.05;36.47
63339;BME280;70568;51.378;-1.342;2023-06-24T06:51:24;101030.27;;;15.29;35.90
63339;BME280;70568;51.378;-1.342;2023-06-24T06:53:51;101021.63;;;14.94;36.19
63339;BME280;70568;51.378;-1.342;2023-06-24T06:56:18;101018.66;;;15.59;34.88
63339;BME280;70568;51.378;-1.342;2023-06-24T06:58:45;101021.99;;;17.46;34.21
63339;BME280;70568;51.378;-1.342;2023-06-24T07:01:12;101029.56;;;15.58;36.43
63339;BME280;70568;51.378;-1.342;2023-06-24T07:03:39;101030.36;;;14.45;36.76
63339;BME280;70568;51.378;-1.342;2023-06-24T07:06:06;101034.94;;;15.90;35.26
63339;BME280;70568;51.378;-1.342;2023-06-24T07:08:33;101034.32;;;17.92;34.02
63339;BME280;70568;51.378;-1.342;2023-06-24T07:11:00;101045.13;;;16.72;35.01
63339;BME280;70568;51.378;-1.342;2023-06-24T07:13:28;101044.34;;;17.41;34.72
63339;BME280;70568;51.378;-1.342;2023-06-24T07:15:55;101047.00;;;16.42;35.52
63339;BME280;70568;51.378;-1.342;2023-06-24T07:18:21;101047.65;;;12.53;39.17
63339;BME280;70568;51.378;-1.342;2023-06-24T07:20:48;101042.28;;;17.70;34.29
63339;BME280;70568;51.378;-1.342;2023-06-24T07:23:15;101059.43;;;18.77;35.07
63339;BME280;70568;51.378;-1.342;2023-06-24T07:25:42;101063.57;;;15.82;38.59
63339;BME280;70568;51.378;-1.342;2023-06-24T07:28:09;101059.73;;;15.11;36.88
63339;BME280;70568;51.378;-1.342;2023-06-24T07:30:36;101064.52;;;17.37;35.69
63339;BME280;70568;51.378;-1.342;2023-06-24T07:33:03;101069.59;;;17.05;36.29
63339;BME280;70568;51.378;-1.342;2023-06-24T07:35:32;101061.66;;;15.99;36.87
63339;BME280;70568;51.378;-1.342;2023-06-24T07:37:59;101062.09;;;15.29;36.97
63339;BME280;70568;51.378;-1.342;2023-06-24T07:40:27;101063.17;;;15.70;37.06
63339;BME280;70568;51.378;-1.342;2023-06-24T07:42:54;101064.48;;;15.24;36.66
63339;BME280;70568;51.378;-1.342;2023-06-24T07:45:21;101065.74;;;16.19;35.27
63339;BME280;70568;51.378;-1.342;2023-06-24T07:47:47;101062.75;;;16.64;34.35
63339;BME280;70568;51.378;-1.342;2023-06-24T07:50:14;101059.64;;;18.35;32.24
63339;BME280;70568;51.378;-1.342;2023-06-24T07:52:41;101060.23;;;18.34;32.23
63339;BME280;70568;51.378;-1.342;2023-06-24T07:55:08;101062.36;;;16.60;35.05
63339;BME280;70568;51.378;-1.342;2023-06-24T07:57:35;101054.91;;;18.66;32.56
63339;BME280;70568;51.378;-1.342;2023-06-24T08:00:02;101061.12;;;17.12;33.77
63339;BME280;70568;51.378;-1.342;2023-06-24T08:02:34;101063.95;;;17.00;33.60
63339;BME280;70568;51.378;-1.342;2023-06-24T08:05:01;101057.45;;;20.17;31.61
63339;BME280;70568;51.378;-1.342;2023-06-24T08:07:28;101052.54;;;17.89;33.28
63339;BME280;70568;51.378;-1.342;2023-06-24T08:09:55;101050.33;;;17.93;31.96
63339;BME280;70568;51.378;-1.342;2023-06-24T08:12:21;101052.61;;;18.44;32.62
63339;BME280;70568;51.378;-1.342;2023-06-24T08:14:48;101047.06;;;18.01;32.69
63339;BME280;70568;51.378;-1.342;2023-06-24T08:17:15;101044.53;;;20.51;30.28
63339;BME280;70568;51.378;-1.342;2023-06-24T08:19:42;101046.98;;;21.08;30.14
63339;BME280;70568;51.378;-1.342;2023-06-24T08:22:09;101043.19;;;20.75;32.93
63339;BME280;70568;51.378;-1.342;2023-06-24T08:24:36;101044.94;;;18.40;34.91
63339;BME280;70568;51.378;-1.342;2023-06-24T08:27:03;101041.40;;;18.00;34.03
63339;BME280;70568;51.378;-1.342;2023-06-24T08:29:30;101037.98;;;17.87;34.45
63339;BME280;70568;51.378;-1.342;2023-06-24T08:31:57;101033.69;;;19.45;33.74
63339;BME280;70568;51.378;-1.342;2023-06-24T08:34:24;101038.51;;;18.03;33.88
63339;BME280;70568;51.378;-1.342;2023-06-24T08:36:51;101036.55;;;17.56;34.84
63339;BME280;70568;51.378;-1.342;2023-06-24T08:39:18;101035.59;;;19.13;32.95
63339;BME280;70568;51.378;-1.342;2023-06-24T08:41:44;101035.28;;;19.19;33.85
63339;BME280;70568;51.378;-1.342;2023-06-24T08:44:11;101038.23;;;18.18;33.50
63339;BME280;70568;51.378;-1.342;2023-06-24T08:46:38;101034.79;;;17.06;33.83
63339;BME280;70568;51.378;-1.342;2023-06-24T08:49:11;101030.69;;;19.00;32.88
63339;BME280;70568;51.378;-1.342;2023-06-24T08:51:43;101026.18;;;19.53;30.98
63339;BME280;70568;51.378;-1.342;2023-06-24T08:54:11;101030.30;;;18.59;31.68
63339;BME280;70568;51.378;-1.342;2023-06-24T08:56:38;101027.51;;;19.83;30.45
63339;BME280;70568;51.378;-1.342;2023-06-24T08:59:06;101030.41;;;19.59;30.25
63339;BME280;70568;51.378;-1.342;2023-06-24T09:01:32;101033.54;;;22.33;30.79
63339;BME280;70568;51.378;-1.342;2023-06-24T09:04:00;101032.08;;;19.75;31.55
63339;BME280;70568;51.378;-1.342;2023-06-24T09:06:27;101034.24;;;20.09;31.89
63339;BME280;70568;51.378;-1.342;2023-06-24T09:08:55;101034.22;;;19.22;35.37
63339;BME280;70568;51.378;-1.342;2023-06-24T09:11:23;101031.33;;;18.91;34.31
63339;BME280;70568;51.378;-1.342;2023-06-24T09:13:54;101036.88;;;19.46;34.44
63339;BME280;70568;51.378;-1.342;2023-06-24T09:16:21;101036.93;;;17.40;34.15
63339;BME280;70568;51.378;-1.342;2023-06-24T09:18:48;101036.80;;;18.41;34.07
63339;BME280;70568;51.378;-1.342;2023-06-24T09:21:21;101033.93;;;19.85;32.08
63339;BME280;70568;51.378;-1.342;2023-06-24T09:23:52;101031.45;;;19.22;32.10
63339;BME280;70568;51.378;-1.342;2023-06-24T09:26:18;101029.01;;;20.83;32.94
63339;BME280;70568;51.378;-1.342;2023-06-24T09:28:47;101029.10;;;20.21;33.56
63339;BME280;70568;51.378;-1.342;2023-06-24T09:31:15;101026.00;;;16.69;35.25
63339;BME280;70568;51.378;-1.342;2023-06-24T09:33:41;101026.80;;;18.82;34.14
63339;BME280;70568;51.378;-1.342;2023-06-24T09:36:11;101023.78;;;18.11;32.98
63339;BME280;70568;51.378;-1.342;2023-06-24T09:38:41;101021.23;;;19.83;31.76
63339;BME280;70568;51.378;-1.342;2023-06-24T09:41:08;101021.40;;;21.59;31.54
63339;BME280;70568;51.378;-1.342;2023-06-24T09:43:35;101019.96;;;21.06;31.84
63339;BME280;70568;51.378;-1.342;2023-06-24T09:46:03;101022.94;;;18.83;34.10
63339;BME280;70568;51.378;-1.342;2023-06-24T09:48:30;101025.72;;;17.96;33.75
63339;BME280;70568;51.378;-1.342;2023-06-24T09:50:59;101019.15;;;19.66;32.31
63339;BME280;70568;51.378;-1.342;2023-06-24T09:53:28;101018.18;;;21.42;30.30
63339;BME280;70568;51.378;-1.342;2023-06-24T09:55:56;101013.68;;;21.54;30.40
63339;BME280;70568;51.378;-1.342;2023-06-24T09:58:24;101011.30;;;20.62;33.28
63339;BME280;70568;51.378;-1.342;2023-06-24T10:00:51;101008.52;;;19.29;34.24
63339;BME280;70568;51.378;-1.342;2023-06-24T10:03:19;101004.70;;;19.15;36.62
63339;BME280;70568;51.378;-1.342;2023-06-24T10:05:46;101003.61;;;19.19;35.51
63339;BME280;70568;51.378;-1.342;2023-06-24T10:08:14;101002.06;;;19.26;34.07
63339;BME280;70568;51.378;-1.342;2023-06-24T10:10:41;100997.56;;;18.12;34.29
63339;BME280;70568;51.378;-1.342;2023-06-24T10:13:08;100992.56;;;17.97;35.85
63339;BME280;70568;51.378;-1.342;2023-06-24T10:15:35;100992.49;;;17.57;35.25
63339;BME280;70568;51.378;-1.342;2023-06-24T10:18:02;100989.36;;;21.26;30.20
63339;BME280;70568;51.378;-1.342;2023-06-24T10:20:29;100989.17;;;21.21;30.56
63339;BME280;70568;51.378;-1.342;2023-06-24T10:23:06;100979.83;;;19.01;31.41
63339;BME280;70568;51.378;-1.342;2023-06-24T10:25:36;100972.55;;;21.19;30.08
63339;BME280;70568;51.378;-1.342;2023-06-24T10:28:03;100977.08;;;22.02;29.74
63339;BME280;70568;51.378;-1.342;2023-06-24T10:30:30;100972.76;;;17.91;32.19
63339;BME280;70568;51.378;-1.342;2023-06-24T10:32:56;100978.04;;;17.84;32.08
63339;BME280;70568;51.378;-1.342;2023-06-24T10:35:25;100980.23;;;18.73;31.66
63339;BME280;70568;51.378;-1.342;2023-06-24T10:37:56;100969.97;;;21.92;28.35
63339;BME280;70568;51.378;-1.342;2023-06-24T10:40:40;100970.08;;;21.83;29.66
63339;BME280;70568;51.378;-1.342;2023-06-24T10:43:27;100956.45;;;21.80;27.83
63339;BME280;70568;51.378;-1.342;2023-06-24T10:45:56;100962.19;;;19.70;31.32
63339;BME280;70568;51.378;-1.342;2023-06-24T10:48:24;100963.19;;;21.03;31.32
63339;BME280;70568;51.378;-1.342;2023-06-24T10:50:51;100951.90;;;20.63;30.14
63339;BME280;70568;51.378;-1.342;2023-06-24T10:53:19;100950.00;;;21.51;29.89
63339;BME280;70568;51.378;-1.342;2023-06-24T10:55:46;100954.88;;;20.61;30.72
63339;BME280;70568;51.378;-1.342;2023-06-24T10:58:14;100949.60;;;22.81;29.21
63339;BME280;70568;51.378;-1.342;2023-06-24T11:00:42;100947.36;;;21.49;31.52
63339;BME280;70568;51.378;-1.342;2023-06-24T11:03:10;100947.71;;;21.77;32.44
63339;BME280;70568;51.378;-1.342;2023-06-24T11:05:39;100945.71;;;21.01;30.81
63339;BME280;70568;51.378;-1.342;2023-06-24T11:08:06;100943.66;;;19.03;31.49
63339;BME280;70568;51.378;-1.342;2023-06-24T11:10:32;100946.20;;;20.49;29.88
63339;BME280;70568;51.378;-1.342;2023-06-24T11:13:05;100938.97;;;22.38;29.05
63339;BME280;70568;51.378;-1.342;2023-06-24T11:15:32;100944.15;;;21.33;30.02
63339;BME280;70568;51.378;-1.342;2023-06-24T11:18:02;100938.82;;;21.25;28.90
63339;BME280;70568;51.378;-1.342;2023-06-24T11:20:28;100937.94;;;21.68;28.75
63339;BME280;70568;51.378;-1.342;2023-06-24T11:22:55;100940.08;;;19.84;30.85
63339;BME280;70568;51.378;-1.342;2023-06-24T11:25:22;100935.60;;;20.17;30.92
63339;BME280;70568;51.378;-1.342;2023-06-24T11:27:50;100929.41;;;22.50;28.31
63339;BME280;70568;51.378;-1.342;2023-06-24T11:30:17;100922.75;;;19.88;29.21
63339;BME280;70568;51.378;-1.342;2023-06-24T11:32:45;100920.29;;;22.55;27.48
63339;BME280;70568;51.378;-1.342;2023-06-24T11:35:13;100924.49;;;21.67;28.90
63339;BME280;70568;51.378;-1.342;2023-06-24T11:37:41;100923.29;;;21.30;29.54
63339;BME280;70568;51.378;-1.342;2023-06-24T11:40:09;100922.86;;;21.18;28.42
63339;BME280;70568;51.378;-1.342;2023-06-24T11:42:37;100912.97;;;21.43;28.70
63339;BME280;70568;51.378;-1.342;2023-06-24T11:45:06;100911.29;;;22.00;27.95
63339;BME280;70568;51.378;-1.342;2023-06-24T11:47:34;100912.49;;;21.63;29.05
63339;BME280;70568;51.378;-1.342;2023-06-24T11:50:03;100908.84;;;22.53;28.15
63339;BME280;70568;51.378;-1.342;2023-06-24T11:52:33;100912.97;;;20.65;30.35
63339;BME280;70568;51.378;-1.342;2023-06-24T11:55:10;100911.44;;;21.44;28.36
63339;BME280;70568;51.378;-1.342;2023-06-24T11:57:54;100906.03;;;20.45;28.30
63339;BME280;70568;51.378;-1.342;2023-06-24T12:00:22;100899.25;;;23.11;26.23
63339;BME280;70568;51.378;-1.342;2023-06-24T12:02:50;100903.54;;;23.54;26.82
63339;BME280;70568;51.378;-1.342;2023-06-24T12:05:21;100896.31;;;23.12;26.41
63339;BME280;70568;51.378;-1.342;2023-06-24T12:07:48;100895.04;;;23.60;26.11
63339;BME280;70568;51.378;-1.342;2023-06-24T12:10:16;100898.89;;;22.57;27.20
63339;BME280;70568;51.378;-1.342;2023-06-24T12:12:44;100895.34;;;21.02;27.49
63339;BME280;70568;51.378;-1.342;2023-06-24T12:15:12;100889.08;;;20.36;27.43
63339;BME280;70568;51.378;-1.342;2023-06-24T12:17:38;100886.88;;;21.18;25.34
63339;BME280;70568;51.378;-1.342;2023-06-24T12:20:06;100884.77;;;22.51;26.17
63339;BME280;70568;51.378;-1.342;2023-06-24T12:22:33;100887.80;;;24.74;24.56
63339;BME280;70568;51.378;-1.342;2023-06-24T12:25:00;100887.53;;;23.21;26.21
63339;BME280;70568;51.378;-1.342;2023-06-24T12:27:27;100881.64;;;21.90;27.46
63339;BME280;70568;51.378;-1.342;2023-06-24T12:29:54;100877.73;;;21.79;27.32
63339;BME280;70568;51.378;-1.342;2023-06-24T12:32:21;100875.52;;;22.15;27.21
63339;BME280;70568;51.378;-1.342;2023-06-24T12:34:47;100873.55;;;21.73;26.54
63339;BME280;70568;51.378;-1.342;2023-06-24T12:37:14;100874.58;;;22.63;26.12
63339;BME280;70568;51.378;-1.342;2023-06-24T12:39:41;100875.41;;;21.92;26.21
63339;BME280;70568;51.378;-1.342;2023-06-24T12:42:08;100875.73;;;22.79;25.03
63339;BME280;70568;51.378;-1.342;2023-06-24T12:44:34;100873.29;;;21.71;26.42